PWSweather.com
Personal Weather Stations
Station Observations
JTOWN
Canterbrook Farms, Jeffersontown, KY 40299

Canterbrook FarmsJeffersontown, KY 40299

Lat: 38.155364, Lon: -85.47956

Elevation: 510

Station Type: Davis Vantage Pro2

http://www.canterbrookfarms.org/wx

Latest ConditionsUpdated 12:15:01 PM EST Friday, Mar 6, 2015
Currently Today's Max Today's Min Today's Average
Temperature 23.9°F-4.5°C 24.1°F-4.4°C -5.9°F-21.1°C 4.5°F-15.3°C
Dew Point 11.6°F-11.3°C 13.4°F-10.3°C -11.2°F-24.0°C -1.1°F-18.4°C
Winds 4.0 mph ESE6.4 kmh ESE 4.0 mph ESE6.4 kmh ESE - 0.3 mph 0.5 kmh
Wind Gusts 8.0 mph12.9 kmh 8.0 mph12.9 kmh - -
Humidity 59% 83% 59% 78%
Pressure 30.60 in1036.2 mb 30.63 in1037.3 mb 30.57 in1035.2 mb -
Precipitation - 0.01 in0.3 mm - -
Hour Temp Dew Point Humidity Winds Wind Gusts Pressure Precip Precip Rate Daily Precip Total
12:15 PM 23.9°F-4.5°C 11.6°F-11.3°C 59% 4.0 mph ESE6.4 kmh ESE 8.0 mph12.9 kmh 30.60 in1036.2 mb 0.00 in0.0 mm 0.00 in/hr0.0 mm/hr 0.01 in0.3 mm
12:00 PM 24.1°F-4.4°C 12.2°F-11.0°C 60% 2.0 mph SE3.2 kmh SE 7.0 mph11.3 kmh 30.61 in1036.6 mb 0.00 in0.0 mm 0.00 in/hr0.0 mm/hr 0.01 in0.3 mm
11:45 AM 23.6°F-4.7°C 11.7°F-11.3°C 60% 3.0 mph SE4.8 kmh SE 8.0 mph12.9 kmh 30.61 in1036.6 mb 0.00 in0.0 mm 0.00 in/hr0.0 mm/hr 0.01 in0.3 mm
11:30 AM 22.9°F-5.1°C 11.8°F-11.2°C 62% 1.0 mph SE1.6 kmh SE 7.0 mph11.3 kmh 30.62 in1036.9 mb 0.00 in0.0 mm 0.00 in/hr0.0 mm/hr 0.01 in0.3 mm
11:15 AM 22.4°F-5.3°C 12.1°F-11.1°C 64% 1.0 mph SE1.6 kmh SE 6.0 mph9.7 kmh 30.61 in1036.6 mb 0.01 in0.3 mm 0.00 in/hr0.0 mm/hr 0.01 in0.3 mm
11:00 AM 21.0°F-6.1°C 11.4°F-11.4°C 66% 3.0 mph SE4.8 kmh SE 8.0 mph12.9 kmh 30.62 in1036.9 mb 0.01 in0.3 mm 0.00 in/hr0.0 mm/hr 0.01 in0.3 mm
10:45 AM 20.5°F-6.4°C 12.3°F-10.9°C 70% 1.0 mph SW1.6 kmh SW 6.0 mph9.7 kmh 30.61 in1036.6 mb 0.01 in0.3 mm 0.00 in/hr0.0 mm/hr 0.01 in0.3 mm
10:30 AM 20.2°F-6.6°C 13.2°F-10.4°C 74% 1.0 mph S1.6 kmh S 7.0 mph11.3 kmh 30.61 in1036.6 mb 0.01 in0.3 mm 0.04 in/hr1.0 mm/hr 0.01 in0.3 mm
10:15 AM 18.0°F-7.8°C 13.4°F-10.3°C 82% Calm Calm -- 30.62 in1036.9 mb 0.00 in0.0 mm 0.00 in/hr0.0 mm/hr 0.00 in0.0 mm
10:00 AM 14.0°F-10.0°C 9.5°F-12.5°C 82% Calm Calm 3.0 mph4.8 kmh 30.62 in1036.9 mb 0.00 in0.0 mm 0.00 in/hr0.0 mm/hr 0.00 in0.0 mm
09:45 AM 11.9°F-11.2°C 7.5°F-13.6°C 82% Calm Calm -- 30.63 in1037.3 mb 0.00 in0.0 mm 0.00 in/hr0.0 mm/hr 0.00 in0.0 mm
09:30 AM 9.7°F-12.4°C 4.8°F-15.1°C 80% Calm Calm -- 30.63 in1037.3 mb 0.00 in0.0 mm 0.00 in/hr0.0 mm/hr 0.00 in0.0 mm
09:15 AM 9.0°F-12.8°C 4.6°F-15.2°C 82% Calm Calm -- 30.62 in1036.9 mb 0.00 in0.0 mm 0.00 in/hr0.0 mm/hr 0.00 in0.0 mm
09:00 AM 6.1°F-14.4°C 1.5°F-16.9°C 81% Calm Calm -- 30.62 in1036.9 mb 0.00 in0.0 mm 0.00 in/hr0.0 mm/hr 0.00 in0.0 mm
08:45 AM 3.7°F-15.7°C -0.8°F-18.2°C 81% Calm Calm -- 30.62 in1036.9 mb 0.00 in0.0 mm 0.00 in/hr0.0 mm/hr 0.00 in0.0 mm
08:30 AM 0.5°F-17.5°C -4.2°F-20.1°C 80% Calm Calm -- 30.62 in1036.9 mb 0.00 in0.0 mm 0.00 in/hr0.0 mm/hr 0.00 in0.0 mm
08:15 AM -1.8°F-18.8°C -6.7°F-21.5°C 79% Calm Calm -- 30.61 in1036.6 mb 0.00 in0.0 mm 0.00 in/hr0.0 mm/hr 0.00 in0.0 mm
08:00 AM -3.5°F-19.7°C -8.6°F-22.6°C 78% Calm Calm -- 30.61 in1036.6 mb 0.00 in0.0 mm 0.00 in/hr0.0 mm/hr 0.00 in0.0 mm
07:45 AM -4.8°F-20.4°C -9.9°F-23.3°C 78% Calm Calm -- 30.61 in1036.6 mb 0.00 in0.0 mm 0.00 in/hr0.0 mm/hr 0.00 in0.0 mm
07:30 AM -5.6°F-20.9°C -11.0°F-23.9°C 77% Calm Calm -- 30.61 in1036.6 mb 0.00 in0.0 mm 0.00 in/hr0.0 mm/hr 0.00 in0.0 mm
07:15 AM -5.9°F-21.1°C -11.2°F-24.0°C 77% Calm Calm -- 30.60 in1036.2 mb 0.00 in0.0 mm 0.00 in/hr0.0 mm/hr 0.00 in0.0 mm
07:00 AM -5.6°F-20.9°C -11.0°F-23.9°C 77% Calm Calm -- 30.60 in1036.2 mb 0.00 in0.0 mm 0.00 in/hr0.0 mm/hr 0.00 in0.0 mm
06:45 AM -5.4°F-20.8°C -10.8°F-23.8°C 77% Calm Calm -- 30.60 in1036.2 mb 0.00 in0.0 mm 0.00 in/hr0.0 mm/hr 0.00 in0.0 mm
06:30 AM -5.0°F-20.6°C -10.4°F-23.6°C 77% Calm Calm -- 30.59 in1035.9 mb 0.00 in0.0 mm 0.00 in/hr0.0 mm/hr 0.00 in0.0 mm
06:15 AM -4.8°F-20.4°C -9.9°F-23.3°C 78% Calm Calm -- 30.59 in1035.9 mb 0.00 in0.0 mm 0.00 in/hr0.0 mm/hr 0.00 in0.0 mm
06:00 AM -4.3°F-20.2°C -9.4°F-23.0°C 78% Calm Calm -- 30.59 in1035.9 mb 0.00 in0.0 mm 0.00 in/hr0.0 mm/hr 0.00 in0.0 mm
05:45 AM -4.1°F-20.1°C -9.2°F-22.9°C 78% Calm Calm -- 30.59 in1035.9 mb 0.00 in0.0 mm 0.00 in/hr0.0 mm/hr 0.00 in0.0 mm
05:30 AM -4.1°F-20.1°C -9.2°F-22.9°C 78% Calm Calm -- 30.59 in1035.9 mb 0.00 in0.0 mm 0.00 in/hr0.0 mm/hr 0.00 in0.0 mm
05:15 AM -3.5°F-19.7°C -8.4°F-22.4°C 79% Calm Calm -- 30.59 in1035.9 mb 0.00 in0.0 mm 0.00 in/hr0.0 mm/hr 0.00 in0.0 mm
05:00 AM -3.1°F-19.5°C -8.0°F-22.2°C 79% Calm Calm -- 30.59 in1035.9 mb 0.00 in0.0 mm 0.00 in/hr0.0 mm/hr 0.00 in0.0 mm
04:45 AM -2.6°F-19.2°C -7.5°F-21.9°C 79% Calm Calm -- 30.59 in1035.9 mb 0.00 in0.0 mm 0.00 in/hr0.0 mm/hr 0.00 in0.0 mm
04:30 AM -2.2°F-19.0°C -7.1°F-21.7°C 79% Calm Calm -- 30.58 in1035.6 mb 0.00 in0.0 mm 0.00 in/hr0.0 mm/hr 0.00 in0.0 mm
04:15 AM -2.0°F-18.9°C -6.7°F-21.5°C 80% Calm Calm -- 30.57 in1035.2 mb 0.00 in0.0 mm 0.00 in/hr0.0 mm/hr 0.00 in0.0 mm
04:00 AM -1.6°F-18.7°C -6.3°F-21.3°C 80% Calm Calm -- 30.58 in1035.6 mb 0.00 in0.0 mm 0.00 in/hr0.0 mm/hr 0.00 in0.0 mm
03:45 AM -1.0°F-18.3°C -5.7°F-20.9°C 80% Calm Calm -- 30.59 in1035.9 mb 0.00 in0.0 mm 0.00 in/hr0.0 mm/hr 0.00 in0.0 mm
03:30 AM -0.8°F-18.2°C -5.5°F-20.8°C 80% Calm Calm -- 30.59 in1035.9 mb 0.00 in0.0 mm 0.00 in/hr0.0 mm/hr 0.00 in0.0 mm
03:15 AM -0.2°F-17.9°C -4.9°F-20.5°C 80% Calm Calm -- 30.59 in1035.9 mb 0.00 in0.0 mm 0.00 in/hr0.0 mm/hr 0.00 in0.0 mm
03:00 AM 0.3°F-17.6°C -4.4°F-20.2°C 80% Calm Calm -- 30.59 in1035.9 mb 0.00 in0.0 mm 0.00 in/hr0.0 mm/hr 0.00 in0.0 mm
02:45 AM 0.7°F-17.4°C -3.8°F-19.9°C 81% Calm Calm -- 30.59 in1035.9 mb 0.00 in0.0 mm 0.00 in/hr0.0 mm/hr 0.00 in0.0 mm
02:30 AM 1.1°F-17.2°C -3.4°F-19.7°C 81% Calm Calm -- 30.59 in1035.9 mb 0.00 in0.0 mm 0.00 in/hr0.0 mm/hr 0.00 in0.0 mm
02:15 AM 1.8°F-16.8°C -2.4°F-19.1°C 82% Calm Calm -- 30.58 in1035.6 mb 0.00 in0.0 mm 0.00 in/hr0.0 mm/hr 0.00 in0.0 mm
02:00 AM 2.0°F-16.7°C -2.5°F-19.2°C 81% Calm Calm -- 30.58 in1035.6 mb 0.00 in0.0 mm 0.00 in/hr0.0 mm/hr 0.00 in0.0 mm
01:45 AM 3.0°F-16.1°C -1.3°F-18.5°C 82% Calm Calm -- 30.59 in1035.9 mb 0.00 in0.0 mm 0.00 in/hr0.0 mm/hr 0.00 in0.0 mm
01:30 AM 3.2°F-16.0°C -1.1°F-18.4°C 82% Calm Calm -- 30.58 in1035.6 mb 0.00 in0.0 mm 0.00 in/hr0.0 mm/hr 0.00 in0.0 mm
01:15 AM 4.1°F-15.5°C 0.1°F-17.7°C 83% Calm Calm -- 30.59 in1035.9 mb 0.00 in0.0 mm 0.00 in/hr0.0 mm/hr 0.00 in0.0 mm
01:00 AM 4.7°F-15.2°C 0.7°F-17.4°C 83% Calm Calm -- 30.58 in1035.6 mb 0.00 in0.0 mm 0.00 in/hr0.0 mm/hr 0.00 in0.0 mm
12:45 AM 5.2°F-14.9°C 1.2°F-17.1°C 83% Calm Calm -- 30.59 in1035.9 mb 0.00 in0.0 mm 0.00 in/hr0.0 mm/hr 0.00 in0.0 mm
12:30 AM 6.1°F-14.4°C 2.0°F-16.7°C 83% Calm Calm -- 30.58 in1035.6 mb 0.00 in0.0 mm 0.00 in/hr0.0 mm/hr 0.00 in0.0 mm
12:15 AM 6.7°F-14.1°C 2.6°F-16.3°C 83% Calm Calm -- 30.58 in1035.6 mb 0.00 in0.0 mm 0.00 in/hr0.0 mm/hr 0.00 in0.0 mm
12:00 AM 7.6°F-13.6°C 3.5°F-15.8°C 83% Calm Calm -- 30.58 in1035.6 mb 0.00 in0.0 mm 0.00 in/hr0.0 mm/hr 0.04 in1.0 mm